CheckWX is a tool to help pilots better visualize weather data.  It is not intended as a substitute for an official pre-flight weather briefing.

03:18:56 UTC

KPWT METAR
Bremerton National Airport
Bremerton, Washington, USA
Current

23 mins ago

KPWT 270256Z AUTO 05005KT 10SM FEW100 20/12 A2987 RMK AO2 SLP130 T02000122 53001
Observed
May-27 @ 02:56 UTC
Wind
  • 050° at 5 KTS
Visibility
10 SM
Flight Rules
VFR
Cloud Levels
  • Few at 10,000' AGL
Temperature
20°C / 68°F
Dewpoint
12°C / 54°F
Humidity
60%
Altimeter
29.87" Hg
Pressure
1011.52 hPa
Previous

1 hour ago

KPWT 270156Z AUTO 04008KT 10SM CLR 21/12 A2986 RMK AO2 SLP127 T02110117
Observed
May-27 @ 01:56 UTC
Wind
  • 040° at 8 KTS
Visibility
10 SM
Flight Rules
VFR
Cloud Levels
  • Clear skies
Temperature
21°C / 70°F
Dewpoint
12°C / 54°F
Humidity
57%
Altimeter
29.86" Hg
Pressure
1011.22 hPa
Previous

2 hours ago

KPWT 270056Z AUTO 04006KT 10SM CLR 21/12 A2986 RMK AO2 SLP127 T02110122
Observed
May-27 @ 00:56 UTC
Wind
  • 040° at 6 KTS
Visibility
10 SM
Flight Rules
VFR
Cloud Levels
  • Clear skies
Temperature
21°C / 70°F
Dewpoint
12°C / 54°F
Humidity
57%
Altimeter
29.86" Hg
Pressure
1011.22 hPa